Time;durP1;ratioP1;P1;durP2;ratioP2;P2;SDS_P1;SDS_P2;PMS_P1;PMS_P2;Temp;Humidity;BMP_temperature;BMP_pressure;BME280_temperature;BME280_humidity;BME280_pressure;Samples;Min_cycle;Max_cycle;Signal;HPM_P1;HPM_P2
2021/12/08 00:00:24;;;;;;;17.55;9.75;;;-3.90;99.90;;;;;;5070533;28;20196;-74
2021/12/08 00:02:49;;;;;;;16.83;8.90;;;-3.90;99.90;;;;;;5069171;28;20192;-75
2021/12/08 00:05:18;;;;;;;15.48;9.75;;;-3.70;99.90;;;;;;5069246;28;20175;-74
2021/12/08 00:07:46;;;;;;;11.00;7.35;;;-3.60;99.90;;;;;;5070638;28;20172;-75
2021/12/08 00:10:39;;;;;;;14.73;8.85;;;-3.70;99.90;;;;;;5070532;28;20220;-74
2021/12/08 00:13:07;;;;;;;13.32;6.80;;;-3.70;99.90;;;;;;5085593;28;20214;-79
2021/12/08 00:15:34;;;;;;;18.92;10.23;;;-3.80;99.90;;;;;;5070406;28;20223;-79
2021/12/08 00:18:02;;;;;;;13.07;8.63;;;-3.80;99.90;;;;;;5069080;28;20177;-79
2021/12/08 00:20:31;;;;;;;15.38;8.20;;;-3.80;99.90;;;;;;5069016;28;20200;-78
2021/12/08 00:23:00;;;;;;;14.65;9.00;;;-3.80;99.90;;;;;;5070231;28;20193;-78
2021/12/08 00:25:26;;;;;;;10.95;6.90;;;-3.90;99.90;;;;;;5068912;28;20161;-79
2021/12/08 00:27:52;;;;;;;14.00;8.38;;;-4.00;99.90;;;;;;5070079;28;20171;-78
2021/12/08 00:30:18;;;;;;;13.27;8.40;;;-4.00;99.90;;;;;;5070113;28;20161;-79
2021/12/08 00:32:46;;;;;;;16.02;8.65;;;-4.10;99.90;;;;;;5068742;28;20216;-78
2021/12/08 00:35:13;;;;;;;9.85;7.45;;;-4.10;99.90;;;;;;5069006;28;20599;-78
2021/12/08 00:37:40;;;;;;;15.57;9.07;;;-4.10;99.90;;;;;;5068882;28;20181;-79
2021/12/08 00:40:09;;;;;;;15.93;8.38;;;-4.20;99.90;;;;;;5068684;28;20287;-78
2021/12/08 00:42:36;;;;;;;15.35;8.77;;;-4.30;99.90;;;;;;5068558;28;20219;-78
2021/12/08 00:45:05;;;;;;;17.33;8.13;;;-4.30;99.90;;;;;;5069893;28;20195;-78
2021/12/08 00:47:31;;;;;;;12.35;7.57;;;-4.30;99.90;;;;;;5069955;28;20165;-79
2021/12/08 00:49:57;;;;;;;15.00;8.15;;;-4.30;99.90;;;;;;5069925;28;20164;-78
2021/12/08 00:52:28;;;;;;;13.18;8.07;;;-4.30;99.90;;;;;;5068419;28;20218;-78
2021/12/08 00:54:55;;;;;;;20.58;11.05;;;-4.30;99.90;;;;;;5069676;28;20153;-78
2021/12/08 00:57:21;;;;;;;13.95;8.70;;;-4.30;99.90;;;;;;5068271;28;20223;-78
2021/12/08 00:59:48;;;;;;;16.50;9.63;;;-4.20;99.90;;;;;;5068277;28;20234;-78
2021/12/08 01:02:14;;;;;;;17.42;8.48;;;-4.20;99.90;;;;;;5068228;28;20198;-78
2021/12/08 01:04:41;;;;;;;19.02;9.48;;;-4.20;99.90;;;;;;5068396;28;20188;-78
2021/12/08 01:07:07;;;;;;;27.23;9.88;;;-4.20;99.90;;;;;;5068311;28;20169;-77
2021/12/08 01:09:34;;;;;;;15.50;8.32;;;-4.30;99.90;;;;;;5069575;28;20168;-78
2021/12/08 01:12:02;;;;;;;14.95;8.23;;;-4.40;99.90;;;;;;5076428;28;20272;-78
2021/12/08 01:14:47;;;;;;;16.27;8.32;;;-4.50;99.90;;;;;;5079160;28;20188;-78
2021/12/08 01:17:14;;;;;;;13.05;8.50;;;-4.60;99.90;;;;;;5068074;28;20728;-77
2021/12/08 01:19:40;;;;;;;17.77;9.50;;;-4.70;99.90;;;;;;5068019;28;20196;-77
2021/12/08 01:22:06;;;;;;;13.48;7.60;;;-4.70;99.90;;;;;;5069173;28;20298;-77
2021/12/08 01:24:31;;;;;;;22.10;8.32;;;-4.60;99.90;;;;;;5069279;28;20161;-77
2021/12/08 01:26:58;;;;;;;17.20;8.05;;;-4.60;99.90;;;;;;5067736;28;20172;-77
2021/12/08 01:29:23;;;;;;;15.77;7.68;;;-4.70;99.90;;;;;;5069130;28;20165;-77
2021/12/08 01:31:50;;;;;;;19.52;8.77;;;-4.80;99.90;;;;;;5069091;28;20196;-77
2021/12/08 01:34:16;;;;;;;11.50;6.72;;;-4.90;99.90;;;;;;5069083;28;20161;-77
2021/12/08 01:36:43;;;;;;;14.07;6.78;;;-5.00;99.90;;;;;;5067876;28;20169;-77
2021/12/08 01:39:10;;;;;;;15.65;7.38;;;-5.00;99.90;;;;;;5069002;28;20195;-77
2021/12/08 01:41:36;;;;;;;17.50;9.15;;;-5.10;99.90;;;;;;5068774;28;20185;-76
2021/12/08 01:46:48;;;;;;;16.27;6.85;;;-4.90;99.90;;;;;;5068859;28;20152;-77
2021/12/08 01:49:14;;;;;;;11.25;7.15;;;-4.60;99.90;;;;;;5067563;28;20172;-76
2021/12/08 01:51:40;;;;;;;12.25;6.20;;;-4.60;99.90;;;;;;5068838;28;20192;-77
2021/12/08 01:54:07;;;;;;;7.88;6.07;;;-4.70;99.90;;;;;;5067875;28;20244;-78
2021/12/08 01:56:34;;;;;;;10.68;6.47;;;-4.80;99.90;;;;;;5065678;28;20184;-78
2021/12/08 01:59:03;;;;;;;10.80;5.95;;;-4.90;99.90;;;;;;5048775;28;20660;-77
2021/12/08 02:01:31;;;;;;;11.73;7.10;;;-5.00;99.90;;;;;;5030880;28;20204;-77
2021/12/08 02:04:03;;;;;;;14.40;7.53;;;-5.00;99.90;;;;;;5048823;28;20197;-77
2021/12/08 02:06:32;;;;;;;13.15;8.70;;;-5.10;99.90;;;;;;5030888;28;20188;-77
2021/12/08 02:08:58;;;;;;;11.48;7.00;;;-5.20;99.90;;;;;;5048708;28;20217;-77
2021/12/08 02:11:25;;;;;;;7.80;6.00;;;-5.30;99.90;;;;;;5030602;28;20204;-77
2021/12/08 02:13:58;;;;;;;10.48;5.50;;;-5.30;99.90;;;;;;5030715;28;20220;-77
2021/12/08 02:16:24;;;;;;;12.48;5.10;;;-5.30;99.90;;;;;;5030781;28;20169;-78
2021/12/08 02:18:52;;;;;;;7.68;4.97;;;-5.30;99.90;;;;;;5030758;28;20170;-77
2021/12/08 02:21:29;;;;;;;9.93;4.97;;;-5.30;99.90;;;;;;5030744;28;20197;-76
2021/12/08 02:23:58;;;;;;;10.18;5.72;;;-5.20;99.90;;;;;;5048633;28;20157;-77
2021/12/08 02:26:25;;;;;;;8.27;5.13;;;-5.20;99.90;;;;;;5030749;28;20224;-77
2021/12/08 02:28:52;;;;;;;10.93;6.97;;;-5.20;99.90;;;;;;5048662;28;20154;-77
2021/12/08 02:31:28;;;;;;;13.43;5.13;;;-5.20;99.90;;;;;;5048478;28;20200;-77
2021/12/08 02:47:52;;;;;;;9.30;4.28;;;-5.40;99.90;;;;;;5052113;28;20222;-76
2021/12/08 02:50:20;;;;;;;5.75;4.10;;;-5.40;99.90;;;;;;5051976;28;20157;-75
2021/12/08 02:52:47;;;;;;;5.85;3.75;;;-5.50;99.90;;;;;;5052111;28;20193;-77
2021/12/08 02:55:13;;;;;;;5.95;4.22;;;-5.50;99.90;;;;;;5052145;28;20161;-77
2021/12/08 02:57:39;;;;;;;9.00;4.85;;;-5.50;99.90;;;;;;5052167;28;20220;-77
2021/12/08 03:00:08;;;;;;;6.22;4.90;;;-5.50;99.90;;;;;;5070698;28;20200;-77
2021/12/08 03:02:34;;;;;;;5.95;4.15;;;-5.50;99.90;;;;;;5070593;28;20322;-77
2021/12/08 03:05:00;;;;;;;6.15;3.58;;;-5.40;99.90;;;;;;5070654;28;20160;-77
2021/12/08 03:07:26;;;;;;;7.97;3.78;;;-5.40;99.90;;;;;;5070674;28;20172;-77
2021/12/08 03:09:51;;;;;;;8.98;5.40;;;-5.20;99.90;;;;;;5070600;28;20192;-77
2021/12/08 03:12:28;;;;;;;7.78;3.42;;;-5.00;99.90;;;;;;5080162;28;20207;-77
2021/12/08 03:14:54;;;;;;;9.18;4.07;;;-5.20;99.90;;;;;;5078078;28;20199;-77
2021/12/08 03:17:20;;;;;;;5.93;4.00;;;-5.30;99.90;;;;;;5070388;28;20187;-76
2021/12/08 03:19:46;;;;;;;5.63;3.80;;;-5.30;99.90;;;;;;5070421;28;20694;-77
2021/12/08 03:22:12;;;;;;;6.90;3.22;;;-5.10;99.90;;;;;;5070242;28;20260;-77
2021/12/08 03:24:42;;;;;;;12.63;3.08;;;-4.80;99.90;;;;;;5070309;28;20184;-77
2021/12/08 03:27:14;;;;;;;6.13;3.28;;;-4.70;99.90;;;;;;5071607;28;20161;-78
2021/12/08 03:30:11;;;;;;;5.72;3.63;;;-4.80;99.90;;;;;;5071502;28;20153;-78
2021/12/08 03:32:39;;;;;;;4.30;3.15;;;-4.70;99.90;;;;;;5071406;28;20256;-75
2021/12/08 03:35:09;;;;;;;7.72;2.75;;;-4.70;99.90;;;;;;5071297;28;20601;-77
2021/12/08 03:37:39;;;;;;;7.00;2.47;;;-4.80;99.90;;;;;;5070099;28;20172;-77
2021/12/08 03:40:14;;;;;;;7.97;2.65;;;-5.00;99.90;;;;;;5071266;28;20185;-77
2021/12/08 03:42:41;;;;;;;4.38;2.70;;;-5.00;99.90;;;;;;5069967;28;20279;-77
2021/12/08 03:45:17;;;;;;;5.60;3.53;;;-5.10;99.90;;;;;;5071102;28;20165;-77
2021/12/08 03:47:46;;;;;;;3.60;2.90;;;-5.20;99.90;;;;;;5069825;28;20255;-78
2021/12/08 03:50:16;;;;;;;7.03;3.60;;;-5.30;99.90;;;;;;5068468;28;20263;-78
2021/12/08 03:52:42;;;;;;;3.25;2.55;;;-5.30;99.90;;;;;;5069713;28;20196;-78
2021/12/08 03:55:12;;;;;;;3.65;3.35;;;-5.40;99.90;;;;;;5070902;28;20161;-78
2021/12/08 03:57:38;;;;;;;5.70;2.20;;;-5.40;99.90;;;;;;5069617;28;20349;-78
2021/12/08 04:00:15;;;;;;;7.35;3.08;;;-5.40;99.90;;;;;;5070833;28;20197;-76
2021/12/08 04:02:41;;;;;;;5.57;2.42;;;-5.50;99.90;;;;;;5070797;28;20188;-79
2021/12/08 04:05:09;;;;;;;4.20;2.72;;;-5.50;99.90;;;;;;5070947;28;20157;-76
2021/12/08 04:07:42;;;;;;;3.95;2.85;;;-5.50;99.90;;;;;;5069434;28;20180;-76
2021/12/08 04:10:15;;;;;;;4.32;2.75;;;-5.50;99.90;;;;;;5069474;28;20173;-76
2021/12/08 04:12:42;;;;;;;5.50;2.50;;;-5.60;99.90;;;;;;5070626;28;20568;-76
2021/12/08 04:15:10;;;;;;;9.88;3.15;;;-5.70;99.90;;;;;;5070843;28;20230;-76
2021/12/08 04:17:40;;;;;;;3.55;3.20;;;-5.70;99.90;;;;;;5070637;28;20168;-77
2021/12/08 04:20:13;;;;;;;7.15;3.47;;;-5.70;99.90;;;;;;5070395;28;20191;-78
2021/12/08 04:22:43;;;;;;;6.95;3.63;;;-5.70;99.90;;;;;;5069162;28;20200;-77
2021/12/08 04:25:18;;;;;;;5.00;3.53;;;-5.70;99.90;;;;;;5070400;28;20164;-77
2021/12/08 04:27:48;;;;;;;4.18;3.47;;;-5.90;99.90;;;;;;5070444;28;20156;-78
2021/12/08 04:30:24;;;;;;;8.68;4.97;;;-5.90;99.90;;;;;;5070343;28;20167;-78
2021/12/08 04:32:50;;;;;;;6.45;3.95;;;-5.80;99.90;;;;;;5068913;28;20192;-77
2021/12/08 04:35:19;;;;;;;5.28;3.42;;;-5.80;99.90;;;;;;5070287;28;20211;-78
2021/12/08 04:37:50;;;;;;;10.80;5.45;;;-5.80;99.90;;;;;;5068956;28;20199;-78
2021/12/08 04:43:13;;;;;;;7.70;4.97;;;-5.80;99.90;;;;;;5070183;28;20691;-76
2021/12/08 04:46:10;;;;;;;7.82;4.60;;;-5.90;99.90;;;;;;5069940;28;20153;-79
2021/12/08 05:04:53;;;;;;;8.05;5.50;;;-6.10;99.90;;;;;;5069753;28;20614;-76
2021/12/08 05:10:16;;;;;;;6.45;4.78;;;-6.20;99.90;;;;;;5069701;28;20195;-77
2021/12/08 05:12:46;;;;;;;5.63;3.60;;;-6.20;99.90;;;;;;5069513;28;20202;-77
2021/12/08 05:15:23;;;;;;;9.63;3.80;;;-6.10;99.90;;;;;;5069530;28;20247;-77
2021/12/08 05:18:05;;;;;;;5.63;3.78;;;-6.10;99.90;;;;;;5068077;28;20237;-76
2021/12/08 05:21:01;;;;;;;5.85;3.72;;;-6.10;99.90;;;;;;5068073;28;20188;-76
2021/12/08 05:23:39;;;;;;;4.28;3.05;;;-6.10;99.90;;;;;;5069413;28;20707;-76
2021/12/08 05:26:16;;;;;;;6.30;3.88;;;-6.10;99.90;;;;;;5068189;28;20182;-78
2021/12/08 05:28:43;;;;;;;3.60;2.42;;;-6.00;99.90;;;;;;5068073;28;20164;-77
2021/12/08 05:31:17;;;;;;;15.77;3.60;;;-6.10;99.90;;;;;;5069294;28;20156;-79
2021/12/08 05:33:45;;;;;;;5.57;3.25;;;-6.00;99.90;;;;;;5069278;28;20204;-78
2021/12/08 05:36:13;;;;;;;8.70;4.75;;;-6.00;99.90;;;;;;5069081;28;20156;-78
2021/12/08 05:38:40;;;;;;;7.82;4.95;;;-6.00;99.90;;;;;;5069256;28;20167;-78
2021/12/08 05:41:08;;;;;;;15.82;4.78;;;-6.00;99.90;;;;;;5069148;28;20181;-77
2021/12/08 05:43:35;;;;;;;7.50;4.63;;;-5.90;99.90;;;;;;5067707;28;20192;-77
2021/12/08 05:46:02;;;;;;;17.52;3.75;;;-5.90;99.90;;;;;;5069201;28;20223;-78
2021/12/08 05:48:31;;;;;;;8.70;4.95;;;-6.00;99.90;;;;;;5067843;28;20236;-77
2021/12/08 05:51:21;;;;;;;12.45;5.68;;;-6.00;99.90;;;;;;5069002;28;20220;-77
2021/12/08 05:53:51;;;;;;;8.40;5.20;;;-6.00;99.90;;;;;;5067667;28;20303;-77
2021/12/08 05:56:18;;;;;;;9.30;5.82;;;-6.00;99.90;;;;;;5067721;28;20176;-78
2021/12/08 05:58:45;;;;;;;6.15;4.00;;;-6.00;99.90;;;;;;5049208;28;20221;-77
2021/12/08 06:01:19;;;;;;;7.25;4.68;;;-6.10;99.90;;;;;;5031121;28;20231;-78
2021/12/08 06:03:49;;;;;;;7.15;5.53;;;-6.10;99.90;;;;;;5048940;28;20208;-78
2021/12/08 06:06:16;;;;;;;8.27;5.30;;;-6.10;99.90;;;;;;5048964;28;20169;-77
2021/12/08 06:08:43;;;;;;;8.30;4.85;;;-6.10;99.90;;;;;;5031226;28;20173;-78
2021/12/08 06:11:11;;;;;;;14.85;6.10;;;-6.20;99.90;;;;;;5031153;28;20179;-78
2021/12/08 06:13:39;;;;;;;12.18;6.03;;;-6.20;99.90;;;;;;5051937;28;20197;-78
2021/12/08 06:16:08;;;;;;;7.18;5.25;;;-6.30;99.90;;;;;;5035012;28;20173;-78
2021/12/08 06:18:39;;;;;;;8.75;4.90;;;-6.30;99.90;;;;;;5052708;28;20161;-78
2021/12/08 06:21:08;;;;;;;12.60;7.00;;;-6.30;99.90;;;;;;5052600;28;20204;-79
2021/12/08 06:23:36;;;;;;;9.57;6.32;;;-6.30;99.90;;;;;;5052632;28;20280;-76
2021/12/08 06:26:03;;;;;;;10.23;5.93;;;-6.40;99.90;;;;;;5052663;28;20158;-77
2021/12/08 06:28:30;;;;;;;9.18;5.55;;;-6.40;99.90;;;;;;5052625;28;20680;-78
2021/12/08 06:30:57;;;;;;;12.45;5.90;;;-6.40;99.90;;;;;;5052635;28;20172;-78
2021/12/08 06:33:23;;;;;;;12.88;6.60;;;-6.30;99.90;;;;;;5034655;28;20201;-77
2021/12/08 06:35:56;;;;;;;9.20;7.63;;;-6.20;99.90;;;;;;5034883;28;20173;-78
2021/12/08 06:38:23;;;;;;;13.88;6.13;;;-6.20;99.90;;;;;;5034468;28;20176;-77
2021/12/08 06:40:58;;;;;;;18.17;7.32;;;-6.20;99.90;;;;;;5052388;28;20189;-77
2021/12/08 06:43:32;;;;;;;9.25;5.90;;;-6.20;99.90;;;;;;5034323;28;20293;-77
2021/12/08 06:46:00;;;;;;;13.98;8.60;;;-6.20;99.90;;;;;;5052297;28;20158;-77
2021/12/08 06:48:30;;;;;;;7.07;5.32;;;-6.10;99.90;;;;;;5052433;28;20158;-77
2021/12/08 06:51:13;;;;;;;17.33;7.75;;;-6.00;99.90;;;;;;5034269;28;20176;-77
2021/12/08 06:53:41;;;;;;;11.30;6.93;;;-5.90;99.90;;;;;;5034254;28;20192;-77
2021/12/08 06:56:39;;;;;;;11.18;6.40;;;-5.90;99.90;;;;;;5051977;28;20180;-77
2021/12/08 06:59:12;;;;;;;10.88;6.15;;;-5.80;99.90;;;;;;5022612;28;20232;-77
2021/12/08 07:01:59;;;;;;;9.38;5.22;;;-5.80;99.90;;;;;;5051877;28;20165;-78
2021/12/08 07:04:36;;;;;;;19.90;6.40;;;-5.80;99.90;;;;;;5052116;28;20153;-78
2021/12/08 07:07:15;;;;;;;15.20;7.45;;;-5.70;99.90;;;;;;5034146;28;20188;-77
2021/12/08 07:09:41;;;;;;;10.20;5.97;;;-5.70;99.90;;;;;;5034020;28;20177;-78
2021/12/08 07:12:16;;;;;;;13.35;7.53;;;-5.70;99.90;;;;;;5051878;28;20212;-78
2021/12/08 07:14:46;;;;;;;14.30;8.02;;;-5.80;99.90;;;;;;5051699;28;20165;-77
2021/12/08 07:17:19;;;;;;;12.55;6.47;;;-5.70;99.90;;;;;;5033858;28;20196;-77
2021/12/08 07:19:51;;;;;;;12.20;6.97;;;-5.60;99.90;;;;;;5033812;28;20201;-77
2021/12/08 07:22:25;;;;;;;17.65;7.25;;;-5.40;99.90;;;;;;5051668;28;20193;-78
2021/12/08 07:24:55;;;;;;;14.02;7.90;;;-5.40;99.90;;;;;;5050575;28;20158;-78
2021/12/08 07:27:32;;;;;;;13.15;8.15;;;-5.40;99.90;;;;;;5033696;28;20181;-78
2021/12/08 07:30:05;;;;;;;14.85;8.98;;;-5.30;99.90;;;;;;5033416;28;20173;-78
2021/12/08 07:32:35;;;;;;;9.80;7.05;;;-5.20;99.90;;;;;;5051467;28;20199;-77
2021/12/08 07:35:24;;;;;;;9.75;5.97;;;-5.10;99.90;;;;;;5033489;28;20169;-78
2021/12/08 07:37:51;;;;;;;9.05;6.25;;;-5.00;99.90;;;;;;5032902;28;20191;-79
2021/12/08 07:40:25;;;;;;;12.20;7.47;;;-5.00;99.90;;;;;;5051140;28;20385;-78
2021/12/08 07:42:59;;;;;;;8.35;6.78;;;-4.90;99.90;;;;;;5051090;28;20188;-78
2021/12/08 07:45:35;;;;;;;7.45;5.32;;;-4.70;99.90;;;;;;5051041;28;20152;-79
2021/12/08 07:48:05;;;;;;;10.27;7.22;;;-4.60;99.90;;;;;;5051328;28;20157;-79
2021/12/08 07:50:40;;;;;;;15.77;8.27;;;-4.40;99.90;;;;;;5049539;28;20176;-79
2021/12/08 07:53:07;;;;;;;18.75;8.23;;;-4.30;99.90;;;;;;5040645;28;20215;-78
2021/12/08 07:55:37;;;;;;;12.18;8.05;;;-4.00;99.90;;;;;;5023280;28;20181;-81
2021/12/08 07:58:06;;;;;;;16.52;8.77;;;-3.90;99.90;;;;;;5057176;28;20326;-78
2021/12/08 08:00:42;;;;;;;12.02;7.22;;;-3.80;99.90;;;;;;5070440;28;20230;-82
2021/12/08 08:03:11;;;;;;;14.18;8.43;;;-3.50;99.90;;;;;;5069389;28;20645;-80
2021/12/08 08:05:39;;;;;;;14.68;9.82;;;-2.20;99.90;;;;;;5070776;28;20153;-81
2021/12/08 08:08:09;;;;;;;17.45;11.63;;;-1.20;99.90;;;;;;5070737;28;20224;-78
2021/12/08 08:10:41;;;;;;;23.50;13.27;;;-0.20;99.90;;;;;;5069341;28;20184;-81
2021/12/08 08:13:09;;;;;;;29.25;15.13;;;0.80;99.90;;;;;;5052959;28;20556;-85
2021/12/08 08:15:43;;;;;;;22.85;14.52;;;1.00;99.90;;;;;;5050572;28;20168;-85
2021/12/08 08:18:12;;;;;;;25.85;15.65;;;1.00;99.90;;;;;;5050516;28;20158;-79
2021/12/08 08:20:44;;;;;;;29.27;17.27;;;1.10;99.90;;;;;;5050174;28;20232;-80
2021/12/08 08:23:11;;;;;;;31.73;19.17;;;1.60;99.90;;;;;;5050141;28;20291;-81
2021/12/08 08:25:42;;;;;;;35.58;20.65;;;1.70;99.90;;;;;;5050406;28;20240;-79
2021/12/08 08:28:09;;;;;;;31.70;18.15;;;1.80;99.90;;;;;;5052814;28;20162;-75
2021/12/08 08:30:52;;;;;;;32.67;18.40;;;2.00;99.90;;;;;;5050240;28;20172;-76
2021/12/08 08:33:19;;;;;;;33.38;20.52;;;2.50;99.90;;;;;;5048895;28;20212;-85
2021/12/08 08:35:50;;;;;;;28.08;17.33;;;3.10;99.90;;;;;;5048102;28;20661;-80
2021/12/08 08:38:23;;;;;;;25.02;16.33;;;3.60;99.90;;;;;;5055406;28;20165;-81
2021/12/08 08:40:54;;;;;;;27.33;15.55;;;3.40;99.90;;;;;;5059127;28;20211;-84
2021/12/08 08:43:21;;;;;;;19.58;13.48;;;3.00;99.90;;;;;;5068974;28;20609;-80
2021/12/08 08:46:09;;;;;;;22.35;12.88;;;3.20;99.90;;;;;;5069768;28;20242;-81
2021/12/08 08:48:47;;;;;;;19.90;12.93;;;3.50;99.90;;;;;;5069767;28;20236;-79
2021/12/08 08:51:33;;;;;;;14.18;9.77;;;4.50;99.90;;;;;;5059204;28;20228;-83
2021/12/08 08:54:06;;;;;;;13.23;8.40;;;4.80;99.90;;;;;;5091303;28;20199;-81
2021/12/08 08:56:37;;;;;;;12.98;8.40;;;5.40;99.90;;;;;;5066703;28;20175;-81
2021/12/08 08:59:12;;;;;;;10.65;6.88;;;5.40;99.90;;;;;;5049146;28;20193;-84
2021/12/08 09:01:44;;;;;;;10.68;6.82;;;5.40;99.90;;;;;;5047102;28;20169;-80
2021/12/08 09:04:27;;;;;;;10.32;7.68;;;5.40;99.90;;;;;;5022580;28;20173;-83
2021/12/08 09:06:56;;;;;;;11.02;6.38;;;5.10;99.90;;;;;;5038555;28;20186;-83
2021/12/08 09:09:28;;;;;;;9.05;6.65;;;5.40;99.90;;;;;;5040715;28;20213;-83
2021/12/08 09:12:18;;;;;;;9.85;6.53;;;5.40;99.90;;;;;;5031627;28;20169;-83
2021/12/08 09:14:50;;;;;;;13.20;7.38;;;5.40;99.90;;;;;;5048511;28;20185;-83
2021/12/08 09:17:22;;;;;;;11.55;6.65;;;5.20;99.90;;;;;;5049819;28;20189;-79
2021/12/08 09:19:59;;;;;;;9.85;5.68;;;5.50;99.90;;;;;;5031662;28;20204;-81
2021/12/08 09:22:39;;;;;;;9.20;6.57;;;5.10;99.90;;;;;;5031709;28;20161;-81
2021/12/08 09:25:18;;;;;;;12.00;7.20;;;5.40;99.90;;;;;;5049409;28;20166;-80
2021/12/08 09:27:51;;;;;;;9.25;6.60;;;5.80;99.90;;;;;;5049259;28;20192;-79
2021/12/08 09:30:33;;;;;;;10.75;5.75;;;5.70;99.90;;;;;;5049993;28;20180;-81
2021/12/08 09:33:06;;;;;;;9.10;6.13;;;5.50;99.90;;;;;;5050277;28;20184;-80
2021/12/08 09:35:50;;;;;;;8.30;5.72;;;4.90;99.90;;;;;;5049332;28;20521;-77
2021/12/08 09:38:23;;;;;;;8.57;5.65;;;4.00;99.90;;;;;;5031643;28;20169;-80
2021/12/08 09:41:00;;;;;;;8.43;4.78;;;3.70;99.90;;;;;;5048928;28;20185;-79
2021/12/08 09:43:33;;;;;;;10.88;5.05;;;3.10;99.90;;;;;;5049319;28;20161;-81
2021/12/08 09:46:07;;;;;;;15.65;6.32;;;3.00;99.90;;;;;;5048762;28;20227;-82
2021/12/08 09:48:35;;;;;;;10.45;6.60;;;2.80;99.90;;;;;;5048203;28;20256;-82
2021/12/08 09:51:01;;;;;;;10.43;6.53;;;2.70;99.90;;;;;;5048807;28;20181;-78
2021/12/08 09:53:28;;;;;;;12.95;6.47;;;2.60;99.90;;;;;;5029871;28;20189;-80
2021/12/08 09:55:55;;;;;;;11.57;5.95;;;2.60;99.90;;;;;;5048759;28;20188;-81
2021/12/08 09:58:21;;;;;;;7.97;5.43;;;2.40;99.90;;;;;;5048779;28;20212;-87
2021/12/08 10:00:50;;;;;;;7.72;5.25;;;2.20;99.90;;;;;;5048753;28;20247;-79
2021/12/08 10:03:17;;;;;;;6.97;5.10;;;1.90;99.90;;;;;;5031296;28;20189;-78
2021/12/08 10:05:44;;;;;;;7.18;4.57;;;2.20;99.90;;;;;;5046766;28;20196;-76
2021/12/08 10:08:10;;;;;;;11.73;6.70;;;2.40;99.90;;;;;;5046475;28;20165;-78
2021/12/08 10:10:41;;;;;;;10.15;5.90;;;2.50;99.90;;;;;;5045587;28;20169;-76
2021/12/08 10:13:08;;;;;;;10.07;4.95;;;2.70;99.90;;;;;;5028345;28;20235;-78
2021/12/08 10:15:35;;;;;;;9.13;5.05;;;3.40;99.90;;;;;;5028809;28;20665;-79
2021/12/08 10:18:01;;;;;;;8.40;6.38;;;3.70;99.90;;;;;;5046518;28;20157;-80
2021/12/08 10:20:34;;;;;;;9.93;5.30;;;3.80;99.90;;;;;;5028564;28;20256;-80
2021/12/08 10:23:22;;;;;;;6.57;4.72;;;3.40;99.90;;;;;;5028961;28;20201;-79
2021/12/08 10:26:04;;;;;;;9.30;5.03;;;3.60;99.90;;;;;;5030711;28;20193;-78
2021/12/08 10:28:34;;;;;;;13.05;5.43;;;4.00;99.90;;;;;;5048563;28;20165;-78
2021/12/08 10:31:06;;;;;;;7.88;5.28;;;4.30;99.90;;;;;;5048553;28;20184;-79
2021/12/08 10:36:54;;;;;;;6.43;4.25;;;2.80;99.90;;;;;;5006719;28;20224;-84
2021/12/08 10:39:46;;;;;;;8.20;4.75;;;2.50;99.90;;;;;;5048363;28;20161;-84
2021/12/08 10:42:19;;;;;;;10.70;4.88;;;2.30;99.90;;;;;;5030645;28;20193;-83
2021/12/08 10:44:56;;;;;;;7.85;4.95;;;2.10;99.90;;;;;;5048323;28;20157;-78
2021/12/08 10:47:28;;;;;;;16.80;5.95;;;1.90;99.90;;;;;;5048136;28;20183;-78
2021/12/08 10:55:17;;;;;;;11.55;5.90;;;1.60;99.90;;;;;;5036655;28;20236;-77
2021/12/08 10:57:47;;;;;;;8.13;4.35;;;1.40;99.90;;;;;;5038961;28;20220;-76
2021/12/08 11:00:40;;;;;;;12.38;5.25;;;1.20;99.90;;;;;;5061150;28;20666;-78
2021/12/08 11:03:08;;;;;;;9.85;5.05;;;1.00;99.90;;;;;;5060570;28;20196;-78
2021/12/08 11:05:37;;;;;;;9.32;5.72;;;1.20;99.90;;;;;;5060972;28;20165;-78
2021/12/08 11:08:03;;;;;;;11.73;6.20;;;1.30;99.90;;;;;;5060138;28;20162;-76
2021/12/08 11:10:36;;;;;;;8.38;5.40;;;1.40;99.90;;;;;;5055006;28;20174;-78
2021/12/08 11:13:02;;;;;;;10.73;5.35;;;1.60;99.90;;;;;;5068741;28;20201;-76
2021/12/08 11:15:30;;;;;;;11.98;6.30;;;1.90;99.90;;;;;;5071203;28;20220;-81
2021/12/08 11:18:17;;;;;;;10.10;5.47;;;1.80;99.90;;;;;;5065492;28;20193;-78
2021/12/08 11:20:54;;;;;;;9.20;5.75;;;1.70;99.90;;;;;;5058797;28;20203;-76
2021/12/08 11:23:40;;;;;;;7.53;5.72;;;1.80;99.90;;;;;;5059375;28;20189;-79
2021/12/08 11:26:18;;;;;;;8.45;5.68;;;1.50;99.90;;;;;;5056022;28;20211;-79
2021/12/08 11:28:50;;;;;;;11.57;5.88;;;1.30;99.90;;;;;;5058888;28;20166;-80
2021/12/08 11:31:17;;;;;;;10.98;6.25;;;1.50;99.90;;;;;;5058190;28;20175;-78
2021/12/08 11:33:50;;;;;;;6.72;5.35;;;1.90;99.90;;;;;;5068875;28;20168;-80
2021/12/08 11:36:19;;;;;;;9.65;5.25;;;2.30;99.90;;;;;;5070991;28;20188;-79
2021/12/08 11:38:50;;;;;;;9.88;5.78;;;2.30;99.90;;;;;;5069840;28;20191;-80
2021/12/08 11:41:36;;;;;;;14.68;5.80;;;2.40;99.90;;;;;;5062146;28;20200;-79
2021/12/08 11:44:27;;;;;;;6.10;4.72;;;2.60;99.90;;;;;;5057742;28;20199;-79
2021/12/08 11:47:02;;;;;;;11.52;4.47;;;2.90;99.90;;;;;;5054876;28;20211;-77
2021/12/08 11:49:28;;;;;;;8.48;5.13;;;2.40;99.90;;;;;;5068750;28;20244;-82
2021/12/08 11:52:06;;;;;;;15.40;5.93;;;2.00;99.90;;;;;;5069554;28;20192;-81
2021/12/08 11:54:38;;;;;;;9.57;5.13;;;1.90;99.90;;;;;;5050833;28;20196;-77
2021/12/08 11:57:12;;;;;;;6.60;4.93;;;1.70;99.90;;;;;;5049016;28;20219;-78
2021/12/08 12:00:24;;;;;;;13.07;5.28;;;1.40;99.90;;;;;;5049150;28;20220;-77
2021/12/08 12:03:07;;;;;;;8.68;5.25;;;1.40;99.90;;;;;;5034798;28;20192;-76
2021/12/08 12:05:39;;;;;;;9.63;4.70;;;1.40;99.90;;;;;;5049372;28;20173;-77
2021/12/08 12:08:08;;;;;;;11.95;4.75;;;1.30;99.90;;;;;;5048826;28;20193;-76
2021/12/08 12:10:39;;;;;;;9.18;5.75;;;1.30;99.90;;;;;;5046856;28;20164;-77
2021/12/08 12:13:10;;;;;;;9.70;5.82;;;1.40;99.90;;;;;;5048391;28;20204;-77
2021/12/08 12:15:40;;;;;;;8.10;5.13;;;1.50;99.90;;;;;;5050425;28;20150;-77
2021/12/08 12:18:06;;;;;;;7.45;3.80;;;1.50;99.90;;;;;;5056705;28;20214;-77
2021/12/08 12:20:41;;;;;;;7.35;4.45;;;1.30;99.90;;;;;;5070171;28;20653;-77
2021/12/08 12:23:20;;;;;;;9.15;5.07;;;1.20;99.90;;;;;;5070229;28;20200;-77
2021/12/08 12:26:16;;;;;;;7.18;4.55;;;1.20;99.90;;;;;;5070145;28;20513;-77
2021/12/08 12:29:03;;;;;;;6.82;4.40;;;1.10;99.90;;;;;;5069955;28;20157;-77
2021/12/08 12:31:49;;;;;;;6.80;4.22;;;1.00;99.90;;;;;;5068798;28;20165;-77
2021/12/08 12:34:36;;;;;;;5.72;4.05;;;1.10;99.90;;;;;;5069936;28;20204;-83
2021/12/08 12:37:28;;;;;;;4.95;3.67;;;1.20;99.90;;;;;;5072324;28;20535;-85
2021/12/08 12:39:57;;;;;;;6.88;4.85;;;1.20;99.90;;;;;;5070537;28;20204;-78
2021/12/08 12:42:25;;;;;;;14.88;4.45;;;1.20;99.90;;;;;;5069692;28;20167;-80
2021/12/08 12:44:57;;;;;;;6.68;4.88;;;1.30;99.90;;;;;;5070942;28;20172;-81
2021/12/08 12:47:29;;;;;;;8.82;4.85;;;1.40;99.90;;;;;;5069612;28;20172;-81
2021/12/08 12:50:04;;;;;;;6.25;3.92;;;1.50;99.90;;;;;;5070457;28;20184;-79
2021/12/08 12:52:50;;;;;;;5.03;4.07;;;1.60;99.90;;;;;;5070243;28;20196;-80
2021/12/08 12:55:27;;;;;;;12.75;4.60;;;1.50;99.90;;;;;;5069655;28;20176;-81
2021/12/08 12:58:05;;;;;;;6.28;4.00;;;1.30;99.90;;;;;;5069471;28;20224;-80
2021/12/08 13:00:40;;;;;;;9.80;5.30;;;1.40;99.90;;;;;;5077499;28;20207;-82
2021/12/08 13:03:08;;;;;;;6.47;4.53;;;1.50;99.90;;;;;;5050219;28;20193;-81
2021/12/08 13:05:50;;;;;;;10.73;5.32;;;1.30;99.90;;;;;;5059159;28;20180;-82
2021/12/08 13:08:54;;;;;;;10.50;5.53;;;1.40;99.90;;;;;;5068399;28;20177;-81
2021/12/08 13:11:25;;;;;;;9.63;4.72;;;1.30;99.90;;;;;;5069362;28;20161;-80
2021/12/08 13:13:54;;;;;;;6.40;4.57;;;1.20;99.90;;;;;;5067619;28;20204;-77
2021/12/08 13:16:33;;;;;;;6.35;4.35;;;1.20;99.90;;;;;;5069181;28;20156;-78
2021/12/08 13:19:00;;;;;;;6.20;4.72;;;1.10;99.90;;;;;;5048828;28;20504;-78
2021/12/08 13:21:49;;;;;;;8.10;5.18;;;1.10;99.90;;;;;;5047968;28;20192;-79
2021/12/08 13:24:41;;;;;;;7.97;4.80;;;1.20;99.90;;;;;;5049315;28;20188;-79
2021/12/08 13:27:26;;;;;;;20.60;5.15;;;1.20;99.90;;;;;;5056260;28;20168;-79
2021/12/08 13:30:08;;;;;;;11.73;4.93;;;1.10;99.90;;;;;;5067594;28;20180;-79
2021/12/08 13:32:45;;;;;;;15.52;5.65;;;1.10;99.90;;;;;;5068756;28;20185;-78
2021/12/08 13:35:12;;;;;;;9.70;4.47;;;0.90;99.90;;;;;;5068847;28;20161;-78
2021/12/08 13:37:56;;;;;;;8.20;5.28;;;0.90;99.90;;;;;;5068719;28;20157;-77
2021/12/08 13:40:50;;;;;;;10.88;5.80;;;0.80;99.90;;;;;;5067335;28;20195;-78
2021/12/08 13:43:51;;;;;;;8.57;4.53;;;0.70;99.90;;;;;;5068547;28;20631;-76
2021/12/08 13:46:43;;;;;;;7.97;5.35;;;0.80;99.90;;;;;;5006699;28;20684;-77
2021/12/08 13:49:14;;;;;;;5.95;3.90;;;0.90;99.90;;;;;;5007008;28;20180;-78
2021/12/08 13:51:40;;;;;;;16.30;5.35;;;1.00;99.90;;;;;;5006898;28;20656;-78
2021/12/08 13:54:28;;;;;;;10.07;4.97;;;1.30;99.90;;;;;;5006801;28;20206;-78
2021/12/08 13:56:55;;;;;;;6.47;4.47;;;1.50;99.90;;;;;;5006898;28;20237;-78
2021/12/08 13:59:58;;;;;;;5.68;3.83;;;1.50;99.90;;;;;;4990594;28;20178;-78